createdAt,value
2023-02-11T00:00:22.323Z,98520.84
2023-02-11T00:02:28.452Z,98533.09
2023-02-11T00:04:32.398Z,98532.94
2023-02-11T00:06:38.113Z,98532.78
2023-02-11T00:08:41.752Z,98527.94
2023-02-11T00:10:46.358Z,98521.53
2023-02-11T00:12:49.551Z,98534.84
2023-02-11T00:14:52.766Z,98533.41
2023-02-11T00:16:55.816Z,98535.47
2023-02-11T00:19:03.005Z,98546.88
2023-02-11T00:21:10.423Z,98545.03
2023-02-11T00:23:13.597Z,98536.22
2023-02-11T00:25:15.836Z,98541.56
2023-02-11T00:27:18.701Z,98537.66
2023-02-11T00:29:21.664Z,98529.47
2023-02-11T00:31:24.414Z,98543.88
2023-02-11T00:33:26.347Z,98530.25
2023-02-11T00:35:28.562Z,98541.88
2023-02-11T00:37:30.099Z,98536.38
2023-02-11T00:39:31.685Z,98545.63
2023-02-11T00:41:34.985Z,98537.81
2023-02-11T00:43:38.667Z,98539.72
2023-02-11T00:45:40.955Z,98537.06
2023-02-11T00:47:42.933Z,98529.53
2023-02-11T00:49:44.715Z,98536.59
2023-02-11T00:51:46.668Z,98532.03
2023-02-11T00:53:48.492Z,98530.91
2023-02-11T00:55:50.408Z,98522.91
2023-02-11T00:57:52.121Z,98517.28
2023-02-11T00:59:53.642Z,98524.97
2023-02-11T01:01:55.585Z,98518.69
2023-02-11T01:03:57.140Z,98518.38
2023-02-11T01:05:58.681Z,98510.88
2023-02-11T01:08:00.344Z,98507.28
2023-02-11T01:10:02.191Z,98502.88
2023-02-11T01:12:04.935Z,98503.50
2023-02-11T01:14:07.405Z,98502.22
2023-02-11T01:16:10.618Z,98502.06
2023-02-11T01:18:12.159Z,98499.09
2023-02-11T01:20:17.144Z,98499.59
2023-02-11T01:22:18.734Z,98497.25
2023-02-11T01:24:22.050Z,98498.19
2023-02-11T01:26:23.547Z,98489.25
2023-02-11T01:28:28.063Z,98483.88
2023-02-11T01:30:29.771Z,98477.94
2023-02-11T01:32:31.340Z,98473.53
2023-02-11T01:34:32.862Z,98458.47
2023-02-11T01:36:34.478Z,98451.91
2023-02-11T01:38:36.521Z,98462.72
2023-02-11T01:40:38.471Z,98466.63
2023-02-11T01:42:41.118Z,98462.09
2023-02-11T01:44:42.887Z,98458.78
2023-02-11T01:46:45.391Z,98465.22
2023-02-11T01:49:09.551Z,98460.34
2023-02-11T01:51:17.006Z,98461.94
2023-02-11T01:53:37.971Z,98450.47
2023-02-11T01:55:58.038Z,98448.00
2023-02-11T01:58:04.896Z,98456.56
2023-02-11T02:00:21.506Z,98455.34
2023-02-11T02:02:29.699Z,98452.53
2023-02-11T02:04:35.331Z,98442.66
2023-02-11T02:06:59.720Z,98438.72
2023-02-11T02:09:08.670Z,98430.38
2023-02-11T02:11:10.636Z,98431.50
2023-02-11T02:13:13.377Z,98418.16
2023-02-11T02:15:20.422Z,98422.38
2023-02-11T02:17:37.795Z,98413.59
2023-02-11T02:20:11.014Z,98413.44
2023-02-11T02:22:27.629Z,98410.31
2023-02-11T02:25:00.743Z,98415.31
2023-02-11T02:27:32.245Z,98407.00
2023-02-11T02:30:17.099Z,98398.72
2023-02-11T02:32:37.781Z,98410.00
2023-02-11T02:34:48.395Z,98406.25
2023-02-11T02:37:10.665Z,98395.72
2023-02-11T02:39:20.568Z,98411.28
2023-02-11T02:41:32.308Z,98410.00
2023-02-11T02:43:36.817Z,98422.72
2023-02-11T02:45:38.587Z,98409.25
2023-02-11T02:47:40.426Z,98417.09
2023-02-11T02:49:41.919Z,98425.25
2023-02-11T02:52:02.426Z,98414.41
2023-02-11T02:54:23.829Z,98415.63
2023-02-11T02:57:04.027Z,98416.25
2023-02-11T02:59:19.888Z,98419.09
2023-02-11T03:01:39.832Z,98418.31
2023-02-11T03:03:56.344Z,98425.69
2023-02-11T03:06:13.153Z,98428.03
2023-02-11T03:08:27.750Z,98435.59
2023-02-11T03:10:32.844Z,98436.03
2023-02-11T03:12:36.249Z,98434.97
2023-02-11T03:14:38.941Z,98433.84
2023-02-11T03:16:43.291Z,98438.09
2023-02-11T03:18:51.126Z,98433.69
2023-02-11T03:20:54.361Z,98428.84
2023-02-11T03:23:00.869Z,98425.53
2023-02-11T03:25:03.371Z,98409.38
2023-02-11T03:27:24.448Z,98412.03
2023-02-11T03:29:54.568Z,98401.41
2023-02-11T03:32:05.116Z,98386.97
2023-02-11T03:34:14.466Z,98387.91
2023-02-11T03:36:32.754Z,98384.31
2023-02-11T03:38:39.748Z,98376.13
2023-02-11T03:40:45.400Z,98376.94
2023-02-11T03:42:56.798Z,98366.56
2023-02-11T03:45:05.428Z,98365.47
2023-02-11T03:47:10.548Z,98363.28
2023-02-11T03:49:16.216Z,98350.41
2023-02-11T03:51:20.516Z,98357.97
2023-02-11T03:53:23.734Z,98353.56
2023-02-11T03:55:26.197Z,98362.06
2023-02-11T03:57:27.724Z,98355.91
2023-02-11T03:59:29.770Z,98354.81
2023-02-11T04:01:31.556Z,98350.91
2023-02-11T04:03:33.381Z,98346.88
2023-02-11T04:05:36.217Z,98341.03
2023-02-11T04:07:37.755Z,98340.13
2023-02-11T04:09:39.243Z,98337.44
2023-02-11T04:11:40.801Z,98344.50
2023-02-11T04:13:42.325Z,98350.78
2023-02-11T04:15:43.961Z,98340.41
2023-02-11T04:17:45.625Z,98352.47
2023-02-11T04:19:47.107Z,98347.78
2023-02-11T04:21:48.613Z,98343.53
2023-02-11T04:23:50.261Z,98366.09
2023-02-11T04:25:52.178Z,98366.41
2023-02-11T04:27:54.161Z,98378.97
2023-02-11T04:29:55.640Z,98370.34
2023-02-11T04:31:57.278Z,98376.44
2023-02-11T04:33:58.854Z,98379.41
2023-02-11T04:36:00.330Z,98374.88
2023-02-11T04:38:01.893Z,98374.72
2023-02-11T04:40:04.098Z,98369.41
2023-02-11T04:42:05.957Z,98357.66
2023-02-11T04:44:07.775Z,98376.47
2023-02-11T04:46:09.401Z,98368.63
2023-02-11T04:48:10.960Z,98369.88
2023-02-11T04:50:12.475Z,98360.47
2023-02-11T04:52:14.840Z,98368.75
2023-02-11T04:54:17.386Z,98359.69
2023-02-11T04:56:19.579Z,98352.63
2023-02-11T04:58:21.201Z,98354.81
2023-02-11T05:00:22.763Z,98337.56
2023-02-11T05:02:24.328Z,98351.34
2023-02-11T05:04:26.210Z,98340.03
2023-02-11T05:06:27.834Z,98339.59
2023-02-11T05:08:29.875Z,98338.19
2023-02-11T05:10:31.420Z,98339.91
2023-02-11T05:12:33.042Z,98339.13
2023-02-11T05:14:34.660Z,98334.09
2023-02-11T05:16:36.574Z,98342.91
2023-02-11T05:18:39.639Z,98348.41
2023-02-11T05:20:42.064Z,98346.06
2023-02-11T05:22:43.660Z,98352.31
2023-02-11T05:24:45.177Z,98341.16
2023-02-11T05:26:46.867Z,98351.53
2023-02-11T05:28:48.439Z,98346.81
2023-02-11T05:30:49.979Z,98353.88
2023-02-11T05:32:51.580Z,98349.81
2023-02-11T05:34:53.155Z,98345.44
2023-02-11T05:36:55.121Z,98355.91
2023-02-11T05:38:56.799Z,98351.22
2023-02-11T05:40:58.436Z,98344.63
2023-02-11T05:43:00.117Z,98345.88
2023-02-11T05:45:01.985Z,98335.50
2023-02-11T05:47:03.526Z,98327.63
2023-02-11T05:49:05.341Z,98326.09
2023-02-11T05:51:06.868Z,98324.25
2023-02-11T05:53:09.205Z,98328.81
2023-02-11T05:55:11.283Z,98329.56
2023-02-11T05:57:13.280Z,98333.78
2023-02-11T05:59:15.022Z,98325.97
2023-02-11T06:01:16.630Z,98339.28
2023-02-11T06:03:18.241Z,98343.94
2023-02-11T06:05:20.032Z,98347.13
2023-02-11T06:07:21.610Z,98336.44
2023-02-11T06:09:23.285Z,98343.19
2023-02-11T06:11:25.377Z,98339.91
2023-02-11T06:13:26.902Z,98337.38
2023-02-11T06:15:28.691Z,98336.16
2023-02-11T06:17:33.668Z,98337.56
2023-02-11T06:19:35.397Z,98337.84
2023-02-11T06:21:43.983Z,98333.16
2023-02-11T06:23:45.977Z,98341.63
2023-02-11T06:25:47.847Z,98337.88
2023-02-11T06:27:49.688Z,98333.47
2023-02-11T06:29:52.718Z,98340.69
2023-02-11T06:31:54.471Z,98349.94
2023-02-11T06:33:56.238Z,98344.63
2023-02-11T06:35:58.223Z,98336.00
2023-02-11T06:38:00.409Z,98341.47
2023-02-11T06:40:02.054Z,98336.63
2023-02-11T06:42:05.390Z,98337.88
2023-02-11T06:44:08.557Z,98350.75
2023-02-11T06:46:10.816Z,98341.78
2023-02-11T06:48:12.460Z,98344.78
2023-02-11T06:50:14.816Z,98343.38
2023-02-11T06:52:16.510Z,98343.69
2023-02-11T06:54:18.090Z,98345.06
2023-02-11T06:56:22.136Z,98344.94
2023-02-11T06:58:23.670Z,98355.75
2023-02-11T07:00:26.593Z,98348.25
2023-02-11T07:02:28.526Z,98347.13
2023-02-11T07:04:31.118Z,98344.31
2023-02-11T07:06:32.740Z,98351.81
2023-02-11T07:08:36.764Z,98351.03
2023-02-11T07:10:38.365Z,98351.81
2023-02-11T07:12:40.014Z,98344.41
2023-02-11T07:14:41.964Z,98345.78
2023-02-11T07:16:43.613Z,98346.13
2023-02-11T07:18:47.439Z,98343.00
2023-02-11T07:20:49.104Z,98350.66
2023-02-11T07:22:50.620Z,98344.28
2023-02-11T07:24:52.226Z,98342.13
2023-02-11T07:26:54.042Z,98349.50
2023-02-11T07:28:55.624Z,98343.16
2023-02-11T07:30:57.406Z,98355.03
2023-02-11T07:32:58.953Z,98361.31
2023-02-11T07:35:00.571Z,98365.22
2023-02-11T07:37:03.042Z,98363.66
2023-02-11T07:39:05.018Z,98365.97
2023-02-11T07:41:09.667Z,98350.09
2023-02-11T07:43:11.147Z,98367.34
2023-02-11T07:45:13.984Z,98362.97
2023-02-11T07:47:15.846Z,98373.94
2023-02-11T07:49:17.565Z,98363.72
2023-02-11T07:51:24.401Z,98366.09
2023-02-11T07:53:25.956Z,98376.03
2023-02-11T07:55:27.514Z,98373.69
2023-02-11T07:57:29.384Z,98373.34
2023-02-11T07:59:30.978Z,98369.56
2023-02-11T08:01:33.220Z,98368.22
2023-02-11T08:03:35.847Z,98368.34
2023-02-11T08:05:38.862Z,98381.81
2023-02-11T08:07:40.460Z,98392.84
2023-02-11T08:09:42.122Z,98394.81
2023-02-11T08:11:43.901Z,98400.50
2023-02-11T08:13:45.912Z,98394.78
2023-02-11T08:15:47.505Z,98397.13
2023-02-11T08:17:49.030Z,98394.97
2023-02-11T08:19:50.592Z,98394.16
2023-02-11T08:21:55.652Z,98394.31
2023-02-11T08:23:58.277Z,98393.28
2023-02-11T08:26:05.141Z,98389.25
2023-02-11T08:28:06.829Z,98402.63
2023-02-11T08:30:09.446Z,98404.81
2023-02-11T08:32:11.383Z,98407.97
2023-02-11T08:34:14.739Z,98411.78
2023-02-11T08:36:20.373Z,98408.75
2023-02-11T08:38:21.931Z,98406.78
2023-02-11T08:40:25.181Z,98411.91
2023-02-11T08:42:26.663Z,98422.72
2023-02-11T08:44:29.477Z,98424.34
2023-02-11T08:46:31.036Z,98423.97
2023-02-11T08:48:33.056Z,98425.03
2023-02-11T08:50:38.588Z,98426.97
2023-02-11T08:52:40.360Z,98429.31
2023-02-11T08:54:42.477Z,98422.16
2023-02-11T08:56:44.915Z,98430.84
2023-02-11T08:58:47.930Z,98433.81
2023-02-11T09:00:50.249Z,98431.59
2023-02-11T09:02:52.213Z,98440.53
2023-02-11T09:04:53.769Z,98441.91
2023-02-11T09:06:55.351Z,98439.69
2023-02-11T09:08:58.707Z,98445.88
2023-02-11T09:11:00.197Z,98444.06
2023-02-11T09:13:01.962Z,98454.88
2023-02-11T09:15:03.701Z,98452.13
2023-02-11T09:17:05.538Z,98447.91
2023-02-11T09:19:07.046Z,98448.50
2023-02-11T09:21:09.780Z,98439.88
2023-02-11T09:23:12.281Z,98444.31
2023-02-11T09:25:13.876Z,98437.09
2023-02-11T09:27:15.706Z,98442.00
2023-02-11T09:29:17.342Z,98443.91
2023-02-11T09:31:22.389Z,98447.56
2023-02-11T09:33:24.111Z,98431.69
2023-02-11T09:35:25.644Z,98442.13
2023-02-11T09:37:27.352Z,98447.50
2023-02-11T09:39:29.248Z,98446.63
2023-02-11T09:41:39.287Z,98447.56
2023-02-11T09:43:48.186Z,98445.56
2023-02-11T09:45:50.445Z,98446.47
2023-02-11T09:48:05.124Z,98451.59
2023-02-11T09:50:14.663Z,98454.09
2023-02-11T09:52:46.910Z,98444.47
2023-02-11T09:54:56.388Z,98454.72
2023-02-11T09:56:58.105Z,98439.53
2023-02-11T09:59:00.218Z,98448.00
2023-02-11T10:01:08.912Z,98446.91
2023-02-11T10:03:32.178Z,98452.38
2023-02-11T10:05:43.057Z,98443.78
2023-02-11T10:07:49.795Z,98447.03
2023-02-11T10:10:12.937Z,98449.94
2023-02-11T10:12:52.750Z,98440.09
2023-02-11T10:14:57.020Z,98454.28
2023-02-11T10:17:25.861Z,98442.22
2023-02-11T10:19:33.087Z,98442.31
2023-02-11T10:21:54.168Z,98448.34
2023-02-11T10:23:59.878Z,98457.00
2023-02-11T10:26:02.961Z,98450.00
2023-02-11T10:28:20.184Z,98449.31
2023-02-11T10:30:40.696Z,98455.91
2023-02-11T10:32:49.173Z,98447.66
2023-02-11T10:34:52.944Z,98449.19
2023-02-11T10:36:54.501Z,98450.56
2023-02-11T10:38:57.450Z,98458.19
2023-02-11T10:41:00.012Z,98467.00
2023-02-11T10:43:06.236Z,98470.06
2023-02-11T10:45:17.716Z,98470.53
2023-02-11T10:47:23.817Z,98467.22
2023-02-11T10:49:36.284Z,98461.41
2023-02-11T10:51:37.800Z,98459.19
2023-02-11T10:53:39.697Z,98458.41
2023-02-11T10:55:50.988Z,98469.59
2023-02-11T10:57:57.875Z,98473.63
2023-02-11T11:00:07.883Z,98471.38
2023-02-11T11:02:24.704Z,98477.41
2023-02-11T11:04:43.892Z,98481.88
2023-02-11T11:06:45.912Z,98480.19
2023-02-11T11:08:50.742Z,98476.16
2023-02-11T11:11:05.265Z,98475.16
2023-02-11T11:13:24.448Z,98473.38
2023-02-11T11:15:31.296Z,98466.47
2023-02-11T11:17:33.173Z,98458.75
2023-02-11T11:19:39.105Z,98460.34
2023-02-11T11:21:44.322Z,98448.81
2023-02-11T11:24:03.753Z,98448.47
2023-02-11T11:26:14.861Z,98439.53
2023-02-11T11:28:22.662Z,98444.47
2023-02-11T11:30:31.668Z,98446.34
2023-02-11T11:32:34.166Z,98446.81
2023-02-11T11:34:42.515Z,98440.75
2023-02-11T11:36:44.736Z,98441.59
2023-02-11T11:38:54.930Z,98436.50
2023-02-11T11:41:16.775Z,98441.31
2023-02-11T11:43:23.141Z,98441.31
2023-02-11T11:45:26.518Z,98425.28
2023-02-11T11:47:51.144Z,98418.88
2023-02-11T11:50:03.596Z,98426.56
2023-02-11T11:52:34.434Z,98426.22
2023-02-11T11:54:37.294Z,98442.69
2023-02-11T11:57:00.957Z,98443.38
2023-02-11T11:59:11.117Z,98442.81
2023-02-11T12:01:27.639Z,98440.09
2023-02-11T12:03:56.871Z,98441.13
2023-02-11T12:06:15.908Z,98439.00
2023-02-11T12:08:30.697Z,98431.63
2023-02-11T12:10:52.130Z,98440.81
2023-02-11T12:13:20.429Z,98442.34
2023-02-11T12:15:46.545Z,98442.75
2023-02-11T12:18:16.076Z,98441.84
2023-02-11T12:20:48.238Z,98441.16
2023-02-11T12:23:19.685Z,98436.53
2023-02-11T12:25:29.708Z,98441.06
2023-02-11T12:27:44.154Z,98443.22
2023-02-11T12:30:03.324Z,98435.25
2023-02-11T12:32:21.810Z,98430.84
2023-02-11T12:34:53.379Z,98428.03
2023-02-11T12:37:06.206Z,98430.09
2023-02-11T12:39:32.823Z,98429.19
2023-02-11T12:42:01.629Z,98428.88
2023-02-11T12:44:03.491Z,98422.63
2023-02-11T12:46:11.742Z,98422.41
2023-02-11T12:48:28.453Z,98423.00
2023-02-11T12:50:50.576Z,98421.75
2023-02-11T12:53:02.158Z,98424.53
2023-02-11T12:55:32.264Z,98423.97
2023-02-11T12:57:37.116Z,98421.63
2023-02-11T12:59:58.645Z,98411.59
2023-02-11T13:02:04.093Z,98415.13
2023-02-11T13:04:21.634Z,98427.91
2023-02-11T13:06:32.942Z,98426.38
2023-02-11T13:08:41.775Z,98430.25
2023-02-11T13:10:47.156Z,98427.59
2023-02-11T13:13:10.280Z,98417.84
2023-02-11T13:15:15.605Z,98419.22
2023-02-11T13:17:25.466Z,98416.31
2023-02-11T13:19:48.132Z,98413.81
2023-02-11T13:22:00.288Z,98411.94
2023-02-11T13:24:13.113Z,98402.50
2023-02-11T13:26:32.840Z,98401.75
2023-02-11T13:28:41.199Z,98400.66
2023-02-11T13:30:47.956Z,98408.69
2023-02-11T13:33:16.078Z,98414.75
2023-02-11T13:35:45.881Z,98426.16
2023-02-11T13:37:47.888Z,98418.88
2023-02-11T13:40:02.425Z,98421.00
2023-02-11T13:42:04.584Z,98421.00
2023-02-11T13:44:08.962Z,98415.88
2023-02-11T13:46:15.505Z,98416.44
2023-02-11T13:48:24.748Z,98420.44
2023-02-11T13:50:27.852Z,98423.69
2023-02-11T13:52:33.067Z,98417.56
2023-02-11T13:54:38.878Z,98426.94
2023-02-11T13:56:46.275Z,98422.13
2023-02-11T13:58:50.871Z,98421.91
2023-02-11T14:00:52.817Z,98429.50
2023-02-11T14:03:42.145Z,98424.38
2023-02-11T14:06:28.409Z,98431.50
2023-02-11T14:08:48.874Z,98436.53
2023-02-11T14:10:53.372Z,98432.53
2023-02-11T14:13:26.433Z,98437.75
2023-02-11T14:15:39.060Z,98428.63
2023-02-11T14:17:40.842Z,98430.28
2023-02-11T14:19:45.458Z,98426.13
2023-02-11T14:21:47.324Z,98432.97
2023-02-11T14:23:52.529Z,98436.28
2023-02-11T14:26:04.646Z,98433.53
2023-02-11T14:28:18.796Z,98440.44
2023-02-11T14:30:44.265Z,98438.66
2023-02-11T14:33:00.807Z,98445.56
2023-02-11T14:35:15.645Z,98445.66
2023-02-11T14:37:32.102Z,98442.13
2023-02-11T14:40:17.738Z,98441.56
2023-02-11T14:42:22.795Z,98451.94
2023-02-11T14:44:28.103Z,98446.69
2023-02-11T14:46:30.791Z,98444.56
2023-02-11T14:48:36.076Z,98444.13
2023-02-11T14:50:48.607Z,98448.69
2023-02-11T14:52:51.293Z,98440.22
2023-02-11T14:55:05.027Z,98460.09
2023-02-11T14:57:14.399Z,98461.63
2023-02-11T14:59:22.255Z,98464.56
2023-02-11T15:01:31.442Z,98466.00
2023-02-11T15:03:39.067Z,98460.09
2023-02-11T15:05:40.724Z,98459.97
2023-02-11T15:07:45.057Z,98461.66
2023-02-11T15:09:51.092Z,98465.44
2023-02-11T15:11:53.547Z,98465.44
2023-02-11T15:13:58.973Z,98463.88
2023-02-11T15:16:06.519Z,98467.69
2023-02-11T15:18:09.571Z,98476.50
2023-02-11T15:20:21.011Z,98471.25
2023-02-11T15:22:26.948Z,98472.16
2023-02-11T15:24:35.214Z,98477.41
2023-02-11T15:26:36.780Z,98475.97
2023-02-11T15:28:38.376Z,98473.06
2023-02-11T15:30:39.958Z,98467.88
2023-02-11T15:32:44.865Z,98482.22
2023-02-11T15:34:48.225Z,98483.34
2023-02-11T15:36:50.130Z,98486.34
2023-02-11T15:39:17.251Z,98485.13
2023-02-11T15:41:35.561Z,98476.84
2023-02-11T15:43:45.586Z,98478.66
2023-02-11T15:45:53.011Z,98470.03
2023-02-11T15:48:06.180Z,98470.25
2023-02-11T15:50:19.204Z,98469.69
2023-02-11T15:52:27.066Z,98467.69
2023-02-11T15:54:32.045Z,98465.25
2023-02-11T15:56:44.077Z,98477.28
2023-02-11T15:58:49.132Z,98478.09
2023-02-11T16:00:59.547Z,98469.81
2023-02-11T16:03:01.297Z,98463.31
2023-02-11T16:05:08.858Z,98463.19
2023-02-11T16:07:56.906Z,98463.31
2023-02-11T16:09:58.663Z,98462.66
2023-02-11T16:12:22.410Z,98475.72
2023-02-11T16:14:32.385Z,98472.03
2023-02-11T16:16:35.359Z,98479.03
2023-02-11T16:19:02.129Z,98479.31
2023-02-11T16:21:15.681Z,98483.31
2023-02-11T16:23:48.743Z,98479.88
2023-02-11T16:25:54.856Z,98483.78
2023-02-11T16:27:56.491Z,98485.09
2023-02-11T16:29:58.672Z,98484.66
2023-02-11T16:32:23.209Z,98484.19
2023-02-11T16:34:25.713Z,98484.28
2023-02-11T16:36:27.389Z,98484.69
2023-02-11T16:38:30.322Z,98476.56
2023-02-11T16:40:32.298Z,98484.84
2023-02-11T16:42:34.639Z,98476.56
2023-02-11T16:44:36.284Z,98481.50
2023-02-11T16:46:38.174Z,98487.75
2023-02-11T16:48:39.817Z,98488.19
2023-02-11T16:50:46.292Z,98490.44
2023-02-11T16:52:48.445Z,98486.81
2023-02-11T16:54:50.034Z,98491.34
2023-02-11T16:56:51.844Z,98498.47
2023-02-11T16:58:53.386Z,98497.91
2023-02-11T17:00:57.061Z,98508.06
2023-02-11T17:02:58.926Z,98508.50
2023-02-11T17:05:02.890Z,98522.13
2023-02-11T17:07:04.699Z,98521.00
2023-02-11T17:09:07.761Z,98520.34
2023-02-11T17:11:09.412Z,98514.97
2023-02-11T17:13:11.133Z,98531.19
2023-02-11T17:15:12.659Z,98526.19
2023-02-11T17:17:14.190Z,98537.72
2023-02-11T17:19:20.334Z,98536.56
2023-02-11T17:21:22.772Z,98546.22
2023-02-11T17:23:24.435Z,98532.75
2023-02-11T17:25:25.980Z,98545.16
2023-02-11T17:27:27.814Z,98534.88
2023-02-11T17:29:29.502Z,98549.97
2023-02-11T17:31:31.149Z,98550.50
2023-02-11T17:33:35.826Z,98546.72
2023-02-11T17:35:39.819Z,98553.78
2023-02-11T17:37:41.859Z,98555.88
2023-02-11T17:39:44.566Z,98556.53
2023-02-11T17:41:46.122Z,98554.50
2023-02-11T17:43:47.753Z,98552.25
2023-02-11T17:45:49.587Z,98551.69
2023-02-11T17:47:52.271Z,98550.69
2023-02-11T17:49:54.001Z,98561.56
2023-02-11T17:51:56.058Z,98563.22
2023-02-11T17:54:01.607Z,98565.66
2023-02-11T17:56:06.291Z,98565.06
2023-02-11T17:58:07.971Z,98566.47
2023-02-11T18:00:10.536Z,98567.75
2023-02-11T18:02:15.471Z,98562.38
2023-02-11T18:04:18.995Z,98573.09
2023-02-11T18:06:21.499Z,98569.41
2023-02-11T18:08:23.332Z,98561.66
2023-02-11T18:10:25.094Z,98569.53
2023-02-11T18:12:26.614Z,98571.47
2023-02-11T18:14:28.256Z,98560.19
2023-02-11T18:16:30.360Z,98558.31
2023-02-11T18:18:32.120Z,98562.78
2023-02-11T18:20:33.608Z,98560.09
2023-02-11T18:22:39.172Z,98557.41
2023-02-11T18:24:41.662Z,98562.72
2023-02-11T18:26:44.126Z,98553.78
2023-02-11T18:28:46.347Z,98561.88
2023-02-11T18:30:48.122Z,98563.09
2023-02-11T18:32:56.209Z,98564.50
2023-02-11T18:34:57.750Z,98553.78
2023-02-11T18:36:59.442Z,98556.53
2023-02-11T18:39:01.298Z,98554.28
2023-02-11T18:41:03.663Z,98560.31
2023-02-11T18:43:05.238Z,98557.44
2023-02-11T18:45:11.371Z,98556.13
2023-02-11T18:47:16.024Z,98553.22
2023-02-11T18:49:18.650Z,98555.72
2023-02-11T18:51:20.643Z,98558.56
2023-02-11T18:53:24.491Z,98567.81
2023-02-11T18:55:26.479Z,98566.59
2023-02-11T18:57:28.261Z,98575.97
2023-02-11T18:59:29.880Z,98574.38
2023-02-11T19:01:34.201Z,98576.03
2023-02-11T19:03:35.884Z,98579.44
2023-02-11T19:05:45.638Z,98573.19
2023-02-11T19:07:47.269Z,98569.94
2023-02-11T19:09:48.908Z,98579.53
2023-02-11T19:11:50.557Z,98584.16
2023-02-11T19:13:52.929Z,98586.28
2023-02-11T19:15:54.647Z,98580.91
2023-02-11T19:17:56.936Z,98585.81
2023-02-11T19:19:58.519Z,98586.94
2023-02-11T19:22:01.763Z,98584.63
2023-02-11T19:24:07.732Z,98589.59
2023-02-11T19:26:09.368Z,98590.84
2023-02-11T19:28:10.968Z,98593.66
2023-02-11T19:30:13.066Z,98599.69
2023-02-11T19:32:15.765Z,98601.91
2023-02-11T19:34:20.023Z,98599.53
2023-02-11T19:36:21.553Z,98601.78
2023-02-11T19:38:23.108Z,98600.34
2023-02-11T19:40:24.679Z,98601.34
2023-02-11T19:42:27.704Z,98597.59
2023-02-11T19:44:29.371Z,98600.69
2023-02-11T19:46:34.214Z,98592.25
2023-02-11T19:48:35.853Z,98602.84
2023-02-11T19:50:37.444Z,98603.28
2023-02-11T19:52:40.595Z,98613.88
2023-02-11T19:54:42.602Z,98611.66
2023-02-11T19:56:44.862Z,98611.06
2023-02-11T19:58:46.473Z,98616.63
2023-02-11T20:00:48.381Z,98626.50
2023-02-11T20:02:50.462Z,98611.56
2023-02-11T20:04:52.118Z,98604.09
2023-02-11T20:06:53.703Z,98605.19
2023-02-11T20:09:00.371Z,98609.06
2023-02-11T20:11:10.553Z,98607.13
2023-02-11T20:13:12.154Z,98613.50
2023-02-11T20:15:14.359Z,98602.00
2023-02-11T20:17:16.091Z,98594.13
2023-02-11T20:19:21.282Z,98593.78
2023-02-11T20:21:26.569Z,98593.59
2023-02-11T20:23:29.888Z,98596.56
2023-02-11T20:25:31.695Z,98590.81
2023-02-11T20:27:33.340Z,98596.00
2023-02-11T20:29:35.128Z,98601.34
2023-02-11T20:31:36.870Z,98596.00
2023-02-11T20:33:39.772Z,98600.91
2023-02-11T20:35:41.328Z,98609.47
2023-02-11T20:37:44.192Z,98606.06
2023-02-11T20:39:45.851Z,98611.19
2023-02-11T20:41:48.107Z,98606.16
2023-02-11T20:43:53.251Z,98606.69
2023-02-11T20:45:54.859Z,98612.63
2023-02-11T20:47:56.534Z,98617.72
2023-02-11T20:49:58.396Z,98626.53
2023-02-11T20:51:59.934Z,98624.50
2023-02-11T20:54:01.534Z,98622.78
2023-02-11T20:56:06.452Z,98627.09
2023-02-11T20:58:07.943Z,98634.91
2023-02-11T21:00:13.014Z,98631.66
2023-02-11T21:02:15.285Z,98638.00
2023-02-11T21:04:20.715Z,98638.28
2023-02-11T21:06:24.599Z,98637.84
2023-02-11T21:08:27.194Z,98639.75
2023-02-11T21:10:28.834Z,98647.75
2023-02-11T21:12:30.868Z,98650.38
2023-02-11T21:14:33.920Z,98649.47
2023-02-11T21:16:35.855Z,98643.44
2023-02-11T21:18:37.668Z,98642.25
2023-02-11T21:20:42.935Z,98647.59
2023-02-11T21:22:46.108Z,98655.16
2023-02-11T21:24:48.128Z,98661.84
2023-02-11T21:26:50.205Z,98660.47
2023-02-11T21:28:52.497Z,98646.44
2023-02-11T21:30:56.088Z,98646.63
2023-02-11T21:32:58.970Z,98646.47
2023-02-11T21:35:02.308Z,98642.41
2023-02-11T21:37:04.324Z,98640.03
2023-02-11T21:39:06.326Z,98635.81
2023-02-11T21:41:08.294Z,98636.44
2023-02-11T21:43:10.442Z,98636.50
2023-02-11T21:45:12.113Z,98643.50
2023-02-11T21:47:13.784Z,98645.41
2023-02-11T21:49:15.505Z,98636.13
2023-02-11T21:51:20.181Z,98629.91
2023-02-11T21:53:21.839Z,98641.75
2023-02-11T21:55:23.396Z,98638.41
2023-02-11T21:57:25.441Z,98643.13
2023-02-11T21:59:27.009Z,98639.91
2023-02-11T22:01:32.186Z,98640.22
2023-02-11T22:03:33.708Z,98638.31
2023-02-11T22:05:36.009Z,98641.19
2023-02-11T22:07:37.619Z,98643.44
2023-02-11T22:09:40.074Z,98645.00
2023-02-11T22:11:41.953Z,98646.22
2023-02-11T22:13:44.270Z,98648.38
2023-02-11T22:15:46.050Z,98646.81
2023-02-11T22:17:47.552Z,98646.13
2023-02-11T22:19:49.464Z,98640.03
2023-02-11T22:21:51.124Z,98635.91
2023-02-11T22:23:54.996Z,98645.38
2023-02-11T22:25:57.683Z,98643.56
2023-02-11T22:27:59.195Z,98648.34
2023-02-11T22:30:01.114Z,98646.91
2023-02-11T22:32:02.810Z,98655.19
2023-02-11T22:34:05.508Z,98656.38
2023-02-11T22:36:12.407Z,98651.66
2023-02-11T22:38:14.086Z,98662.38
2023-02-11T22:40:16.621Z,98659.53
2023-02-11T22:42:18.224Z,98668.53
2023-02-11T22:44:21.389Z,98673.09
2023-02-11T22:46:23.455Z,98671.47
2023-02-11T22:48:25.174Z,98669.44
2023-02-11T22:50:26.705Z,98669.56
2023-02-11T22:52:28.314Z,98664.66
2023-02-11T22:54:29.936Z,98666.06
2023-02-11T22:56:33.171Z,98674.41
2023-02-11T22:58:36.278Z,98670.94
2023-02-11T23:00:40.824Z,98672.38
2023-02-11T23:02:42.360Z,98673.94
2023-02-11T23:04:43.947Z,98678.31
2023-02-11T23:06:47.432Z,98680.03
2023-02-11T23:08:48.980Z,98688.44
2023-02-11T23:10:50.540Z,98682.66
2023-02-11T23:12:52.083Z,98689.44
2023-02-11T23:14:53.632Z,98690.72
2023-02-11T23:16:55.361Z,98686.47
2023-02-11T23:19:00.120Z,98681.06
2023-02-11T23:21:05.024Z,98684.66
2023-02-11T23:23:06.774Z,98686.06
2023-02-11T23:25:08.497Z,98681.28
2023-02-11T23:27:10.054Z,98689.31
2023-02-11T23:29:12.453Z,98695.31
2023-02-11T23:31:20.525Z,98700.84
2023-02-11T23:33:22.960Z,98702.19
2023-02-11T23:35:24.802Z,98701.28
2023-02-11T23:37:26.435Z,98695.56
2023-02-11T23:39:27.972Z,98696.78
2023-02-11T23:41:29.612Z,98691.38
2023-02-11T23:43:31.271Z,98689.16
2023-02-11T23:45:32.833Z,98694.78
2023-02-11T23:47:35.283Z,98695.97
2023-02-11T23:49:37.155Z,98692.31
2023-02-11T23:51:38.709Z,98701.78
2023-02-11T23:53:40.635Z,98702.66
2023-02-11T23:55:43.530Z,98692.78
2023-02-11T23:57:45.576Z,98699.88
2023-02-11T23:59:49.745Z,98694.16
